Sulphur Springs, Missouri
Current Conditions -  °F | °C
As of 5:53 PM on Friday 21 Nov 2014 (Local Time) from KCPS Reporting Station
Overcast Overcast  
Wind Chill: 36°   Ceiling: 2500
Heat Index: 41°   Visibility: 10mi
Dew Point: 23°   Wind: 8mph
Humidity: 49%   Direction: 130°SE
Pressure: 30.3"   Gusts: NA
Location:  38.3874°N, 90.4319°W
Report Text: KCPS 212353Z 13007KT 10SM OVC025 05/M05 A3030 RMK AO2 SLP266 T00501050 10061 20039 58003
Loading
Personal Weather Stations






























Interactive Weather Map New forecast layout! Learn more

10-Day Weather Forecast

Advertisements
Track Severe Weather on mobile